Terminal Aerodrome Forecast
Issued by NWS Pendleton, OR

Current Version | Previous Version | Text Only | Print | Product List | Glossary On
Versions: 1 2 3 4 5 6 7 8 9 10 11 12 13 14 15
000
FTUS46 KPDT 191100
TAFPDT
TAF
KPDT 191120Z 1912/2012 10008KT P6SM SCT200
     FM191700 28011KT P6SM SCT150
     FM191900 28015G25KT P6SM BKN100
     FM192300 27022G32KT P6SM BKN070
     FM200300 25015G25KT P6SM SCT070
     FM200900 23011KT P6SM SKC=

USA.gov is the U.S. government's official web portal to all federal, state and local government web resources and services.